sensor_id;sensor_type;location;lat;lon;timestamp;P1;durP1;ratioP1;P2;durP2;ratioP2
26435;SDS011;15351;52.408;16.826;2024-02-28T00:01:23;84.00;;;54.00;;
26435;SDS011;15351;52.408;16.826;2024-02-28T00:04:31;81.80;;;53.20;;
26435;SDS011;15351;52.408;16.826;2024-02-28T00:07:19;80.50;;;52.60;;
26435;SDS011;15351;52.408;16.826;2024-02-28T00:12:24;84.20;;;53.70;;
26435;SDS011;15351;52.408;16.826;2024-02-28T00:18:05;82.30;;;54.30;;
26435;SDS011;15351;52.408;16.826;2024-02-28T00:20:35;88.30;;;56.10;;
26435;SDS011;15351;52.408;16.826;2024-02-28T00:23:02;84.50;;;56.60;;
26435;SDS011;15351;52.408;16.826;2024-02-28T00:25:33;91.50;;;58.80;;
26435;SDS011;15351;52.408;16.826;2024-02-28T00:28:41;102.20;;;65.60;;
26435;SDS011;15351;52.408;16.826;2024-02-28T00:31:10;103.80;;;65.20;;
26435;SDS011;15351;52.408;16.826;2024-02-28T00:33:48;105.30;;;66.20;;
26435;SDS011;15351;52.408;16.826;2024-02-28T00:36:14;112.50;;;66.50;;
26435;SDS011;15351;52.408;16.826;2024-02-28T00:38:42;107.90;;;67.60;;
26435;SDS011;15351;52.408;16.826;2024-02-28T00:41:09;106.50;;;65.90;;
26435;SDS011;15351;52.408;16.826;2024-02-28T00:43:36;100.70;;;63.20;;
26435;SDS011;15351;52.408;16.826;2024-02-28T00:46:12;100.90;;;63.20;;
26435;SDS011;15351;52.408;16.826;2024-02-28T00:48:39;95.70;;;60.60;;
26435;SDS011;15351;52.408;16.826;2024-02-28T00:51:06;94.40;;;61.20;;
26435;SDS011;15351;52.408;16.826;2024-02-28T00:54:06;94.70;;;60.30;;
26435;SDS011;15351;52.408;16.826;2024-02-28T00:56:34;94.30;;;60.00;;
26435;SDS011;15351;52.408;16.826;2024-02-28T00:59:01;94.60;;;58.80;;
26435;SDS011;15351;52.408;16.826;2024-02-28T01:01:28;93.30;;;59.90;;
26435;SDS011;15351;52.408;16.826;2024-02-28T01:03:55;95.40;;;60.50;;
26435;SDS011;15351;52.408;16.826;2024-02-28T01:06:22;97.70;;;61.50;;
26435;SDS011;15351;52.408;16.826;2024-02-28T01:11:49;97.40;;;61.20;;
26435;SDS011;15351;52.408;16.826;2024-02-28T01:14:36;95.00;;;61.30;;
26435;SDS011;15351;52.408;16.826;2024-02-28T01:17:10;91.80;;;59.90;;
26435;SDS011;15351;52.408;16.826;2024-02-28T01:19:38;92.40;;;59.00;;
26435;SDS011;15351;52.408;16.826;2024-02-28T01:22:05;87.40;;;57.40;;
26435;SDS011;15351;52.408;16.826;2024-02-28T01:24:32;85.30;;;56.80;;
26435;SDS011;15351;52.408;16.826;2024-02-28T01:27:03;86.70;;;56.60;;
26435;SDS011;15351;52.408;16.826;2024-02-28T01:29:30;84.70;;;55.60;;
26435;SDS011;15351;52.408;16.826;2024-02-28T01:32:00;82.70;;;55.40;;
26435;SDS011;15351;52.408;16.826;2024-02-28T01:34:37;79.80;;;54.40;;
26435;SDS011;15351;52.408;16.826;2024-02-28T01:37:05;81.70;;;53.90;;
26435;SDS011;15351;52.408;16.826;2024-02-28T01:39:32;81.10;;;54.60;;
26435;SDS011;15351;52.408;16.826;2024-02-28T01:41:59;80.90;;;53.90;;
26435;SDS011;15351;52.408;16.826;2024-02-28T01:44:34;82.40;;;53.60;;
26435;SDS011;15351;52.408;16.826;2024-02-28T01:47:09;80.70;;;53.40;;
26435;SDS011;15351;52.408;16.826;2024-02-28T01:49:39;80.60;;;52.10;;
26435;SDS011;15351;52.408;16.826;2024-02-28T01:55:08;76.70;;;50.00;;
26435;SDS011;15351;52.408;16.826;2024-02-28T01:57:36;76.20;;;49.80;;
26435;SDS011;15351;52.408;16.826;2024-02-28T02:00:06;74.80;;;48.50;;
26435;SDS011;15351;52.408;16.826;2024-02-28T02:02:35;76.00;;;48.50;;
26435;SDS011;15351;52.408;16.826;2024-02-28T02:05:02;72.90;;;46.90;;
26435;SDS011;15351;52.408;16.826;2024-02-28T02:07:31;71.30;;;46.60;;
26435;SDS011;15351;52.408;16.826;2024-02-28T02:09:59;70.50;;;47.40;;
26435;SDS011;15351;52.408;16.826;2024-02-28T02:12:26;71.10;;;47.70;;
26435;SDS011;15351;52.408;16.826;2024-02-28T02:17:32;71.30;;;47.10;;
26435;SDS011;15351;52.408;16.826;2024-02-28T02:19:59;70.90;;;46.40;;
26435;SDS011;15351;52.408;16.826;2024-02-28T02:22:27;71.00;;;46.60;;
26435;SDS011;15351;52.408;16.826;2024-02-28T02:25:07;71.00;;;47.30;;
26435;SDS011;15351;52.408;16.826;2024-02-28T02:27:43;73.40;;;47.90;;
26435;SDS011;15351;52.408;16.826;2024-02-28T02:30:31;71.70;;;46.20;;
26435;SDS011;15351;52.408;16.826;2024-02-28T02:32:58;71.90;;;45.90;;
26435;SDS011;15351;52.408;16.826;2024-02-28T02:35:37;73.00;;;47.60;;
26435;SDS011;15351;52.408;16.826;2024-02-28T02:38:26;75.50;;;46.70;;
26435;SDS011;15351;52.408;16.826;2024-02-28T02:40:53;68.70;;;44.00;;
26435;SDS011;15351;52.408;16.826;2024-02-28T02:43:19;72.60;;;45.60;;
26435;SDS011;15351;52.408;16.826;2024-02-28T02:45:56;71.00;;;45.50;;
26435;SDS011;15351;52.408;16.826;2024-02-28T02:48:23;71.70;;;45.40;;
26435;SDS011;15351;52.408;16.826;2024-02-28T02:51:11;69.70;;;44.60;;
26435;SDS011;15351;52.408;16.826;2024-02-28T02:53:47;73.70;;;44.90;;
26435;SDS011;15351;52.408;16.826;2024-02-28T02:56:14;70.30;;;44.20;;
26435;SDS011;15351;52.408;16.826;2024-02-28T02:58:45;68.80;;;44.50;;
26435;SDS011;15351;52.408;16.826;2024-02-28T03:01:19;75.50;;;45.60;;
26435;SDS011;15351;52.408;16.826;2024-02-28T03:03:46;71.00;;;45.70;;
26435;SDS011;15351;52.408;16.826;2024-02-28T03:06:16;75.60;;;46.30;;
26435;SDS011;15351;52.408;16.826;2024-02-28T03:08:53;81.10;;;46.60;;
26435;SDS011;15351;52.408;16.826;2024-02-28T03:14:01;85.50;;;47.40;;
26435;SDS011;15351;52.408;16.826;2024-02-28T03:16:31;92.00;;;48.00;;
26435;SDS011;15351;52.408;16.826;2024-02-28T03:19:03;87.00;;;47.70;;
26435;SDS011;15351;52.408;16.826;2024-02-28T03:21:31;89.10;;;48.30;;
26435;SDS011;15351;52.408;16.826;2024-02-28T03:23:58;88.10;;;47.90;;
26435;SDS011;15351;52.408;16.826;2024-02-28T03:26:38;86.40;;;47.80;;
26435;SDS011;15351;52.408;16.826;2024-02-28T03:29:08;84.00;;;45.40;;
26435;SDS011;15351;52.408;16.826;2024-02-28T03:32:03;88.60;;;46.20;;
26435;SDS011;15351;52.408;16.826;2024-02-28T03:34:41;93.80;;;47.70;;
26435;SDS011;15351;52.408;16.826;2024-02-28T03:37:09;87.90;;;45.90;;
26435;SDS011;15351;52.408;16.826;2024-02-28T03:39:40;86.50;;;44.80;;
26435;SDS011;15351;52.408;16.826;2024-02-28T03:42:06;87.50;;;44.30;;
26435;SDS011;15351;52.408;16.826;2024-02-28T03:44:34;77.70;;;41.00;;
26435;SDS011;15351;52.408;16.826;2024-02-28T03:47:01;76.60;;;39.60;;
26435;SDS011;15351;52.408;16.826;2024-02-28T03:49:27;81.80;;;39.90;;
26435;SDS011;15351;52.408;16.826;2024-02-28T03:55:32;76.50;;;36.60;;
26435;SDS011;15351;52.408;16.826;2024-02-28T03:57:58;72.60;;;35.90;;
26435;SDS011;15351;52.408;16.826;2024-02-28T04:00:37;73.80;;;35.80;;
26435;SDS011;15351;52.408;16.826;2024-02-28T04:03:07;69.00;;;34.30;;
26435;SDS011;15351;52.408;16.826;2024-02-28T04:05:35;73.80;;;34.80;;
26435;SDS011;15351;52.408;16.826;2024-02-28T04:08:02;70.90;;;34.20;;
26435;SDS011;15351;52.408;16.826;2024-02-28T04:10:46;69.80;;;34.70;;
26435;SDS011;15351;52.408;16.826;2024-02-28T04:13:20;74.20;;;35.20;;
26435;SDS011;15351;52.408;16.826;2024-02-28T04:15:47;71.60;;;34.20;;
26435;SDS011;15351;52.408;16.826;2024-02-28T04:18:14;70.60;;;34.00;;
26435;SDS011;15351;52.408;16.826;2024-02-28T04:21:11;70.30;;;33.80;;
26435;SDS011;15351;52.408;16.826;2024-02-28T04:23:38;69.50;;;33.50;;
26435;SDS011;15351;52.408;16.826;2024-02-28T04:26:17;71.80;;;33.00;;
26435;SDS011;15351;52.408;16.826;2024-02-28T04:28:53;71.70;;;33.90;;
26435;SDS011;15351;52.408;16.826;2024-02-28T04:31:46;72.30;;;34.90;;
26435;SDS011;15351;52.408;16.826;2024-02-28T04:34:13;77.20;;;35.60;;
26435;SDS011;15351;52.408;16.826;2024-02-28T04:37:00;76.30;;;35.30;;
26435;SDS011;15351;52.408;16.826;2024-02-28T04:39:45;77.90;;;36.30;;
26435;SDS011;15351;52.408;16.826;2024-02-28T04:42:21;76.10;;;36.60;;
26435;SDS011;15351;52.408;16.826;2024-02-28T04:45:01;78.80;;;35.80;;
26435;SDS011;15351;52.408;16.826;2024-02-28T04:47:31;78.20;;;35.50;;
26435;SDS011;15351;52.408;16.826;2024-02-28T04:50:07;77.80;;;36.90;;
26435;SDS011;15351;52.408;16.826;2024-02-28T04:52:36;77.30;;;36.10;;
26435;SDS011;15351;52.408;16.826;2024-02-28T04:55:03;75.30;;;35.60;;
26435;SDS011;15351;52.408;16.826;2024-02-28T04:57:30;80.10;;;37.70;;
26435;SDS011;15351;52.408;16.826;2024-02-28T05:00:00;74.30;;;36.50;;
26435;SDS011;15351;52.408;16.826;2024-02-28T05:08:09;73.20;;;35.40;;
26435;SDS011;15351;52.408;16.826;2024-02-28T05:10:37;72.80;;;35.50;;
26435;SDS011;15351;52.408;16.826;2024-02-28T05:13:37;69.90;;;35.20;;
26435;SDS011;15351;52.408;16.826;2024-02-28T05:16:25;66.50;;;33.30;;
26435;SDS011;15351;52.408;16.826;2024-02-28T05:19:02;65.70;;;34.20;;
26435;SDS011;15351;52.408;16.826;2024-02-28T05:24:33;64.00;;;34.20;;
26435;SDS011;15351;52.408;16.826;2024-02-28T05:27:01;58.60;;;31.60;;
26435;SDS011;15351;52.408;16.826;2024-02-28T05:30:03;58.30;;;30.00;;
26435;SDS011;15351;52.408;16.826;2024-02-28T05:32:58;55.80;;;30.10;;
26435;SDS011;15351;52.408;16.826;2024-02-28T05:35:28;54.10;;;29.30;;
26435;SDS011;15351;52.408;16.826;2024-02-28T05:37:55;55.90;;;29.20;;
26435;SDS011;15351;52.408;16.826;2024-02-28T05:40:51;54.50;;;28.30;;
26435;SDS011;15351;52.408;16.826;2024-02-28T05:43:17;53.80;;;27.80;;
26435;SDS011;15351;52.408;16.826;2024-02-28T05:45:44;56.00;;;29.70;;
26435;SDS011;15351;52.408;16.826;2024-02-28T05:48:12;56.50;;;28.80;;
26435;SDS011;15351;52.408;16.826;2024-02-28T05:50:49;52.80;;;27.60;;
26435;SDS011;15351;52.408;16.826;2024-02-28T05:53:23;52.20;;;27.70;;
26435;SDS011;15351;52.408;16.826;2024-02-28T05:55:56;49.20;;;25.10;;
26435;SDS011;15351;52.408;16.826;2024-02-28T05:58:24;50.10;;;26.20;;
26435;SDS011;15351;52.408;16.826;2024-02-28T06:00:51;56.10;;;27.30;;
26435;SDS011;15351;52.408;16.826;2024-02-28T06:03:31;53.90;;;26.80;;
26435;SDS011;15351;52.408;16.826;2024-02-28T06:06:19;53.00;;;26.80;;
26435;SDS011;15351;52.408;16.826;2024-02-28T06:08:45;52.70;;;26.80;;
26435;SDS011;15351;52.408;16.826;2024-02-28T06:11:12;52.50;;;27.00;;
26435;SDS011;15351;52.408;16.826;2024-02-28T06:13:42;52.80;;;26.80;;
26435;SDS011;15351;52.408;16.826;2024-02-28T06:16:15;54.70;;;27.70;;
26435;SDS011;15351;52.408;16.826;2024-02-28T06:18:44;57.40;;;28.20;;
26435;SDS011;15351;52.408;16.826;2024-02-28T06:21:12;59.30;;;28.00;;
26435;SDS011;15351;52.408;16.826;2024-02-28T06:23:40;59.70;;;28.50;;
26435;SDS011;15351;52.408;16.826;2024-02-28T06:26:07;54.30;;;27.40;;
26435;SDS011;15351;52.408;16.826;2024-02-28T06:28:41;56.50;;;29.10;;
26435;SDS011;15351;52.408;16.826;2024-02-28T06:31:13;60.30;;;30.10;;
26435;SDS011;15351;52.408;16.826;2024-02-28T06:33:44;60.10;;;29.60;;
26435;SDS011;15351;52.408;16.826;2024-02-28T06:36:11;62.80;;;30.20;;
26435;SDS011;15351;52.408;16.826;2024-02-28T06:38:38;58.90;;;30.90;;
26435;SDS011;15351;52.408;16.826;2024-02-28T06:41:05;54.40;;;28.50;;
26435;SDS011;15351;52.408;16.826;2024-02-28T06:43:35;53.20;;;27.80;;
26435;SDS011;15351;52.408;16.826;2024-02-28T06:46:02;54.20;;;27.50;;
26435;SDS011;15351;52.408;16.826;2024-02-28T06:48:30;55.70;;;29.00;;
26435;SDS011;15351;52.408;16.826;2024-02-28T06:50:57;57.80;;;29.50;;
26435;SDS011;15351;52.408;16.826;2024-02-28T06:53:24;58.00;;;30.40;;
26435;SDS011;15351;52.408;16.826;2024-02-28T06:55:53;60.00;;;30.10;;
26435;SDS011;15351;52.408;16.826;2024-02-28T06:58:20;65.50;;;33.90;;
26435;SDS011;15351;52.408;16.826;2024-02-28T07:01:08;68.90;;;35.40;;
26435;SDS011;15351;52.408;16.826;2024-02-28T07:03:58;68.90;;;35.20;;
26435;SDS011;15351;52.408;16.826;2024-02-28T07:06:24;64.70;;;33.50;;
26435;SDS011;15351;52.408;16.826;2024-02-28T07:08:51;58.80;;;32.50;;
26435;SDS011;15351;52.408;16.826;2024-02-28T07:14:05;60.90;;;31.40;;
26435;SDS011;15351;52.408;16.826;2024-02-28T07:16:39;64.40;;;31.90;;
26435;SDS011;15351;52.408;16.826;2024-02-28T07:19:19;57.70;;;30.30;;
26435;SDS011;15351;52.408;16.826;2024-02-28T07:21:51;55.10;;;29.20;;
26435;SDS011;15351;52.408;16.826;2024-02-28T07:24:18;53.20;;;28.60;;
26435;SDS011;15351;52.408;16.826;2024-02-28T07:26:48;54.30;;;28.60;;
26435;SDS011;15351;52.408;16.826;2024-02-28T07:29:15;52.10;;;28.80;;
26435;SDS011;15351;52.408;16.826;2024-02-28T07:31:42;56.80;;;29.20;;
26435;SDS011;15351;52.408;16.826;2024-02-28T07:37:17;64.30;;;30.50;;
26435;SDS011;15351;52.408;16.826;2024-02-28T07:39:44;51.00;;;26.50;;
26435;SDS011;15351;52.408;16.826;2024-02-28T07:42:20;47.40;;;25.20;;
26435;SDS011;15351;52.408;16.826;2024-02-28T07:44:50;41.10;;;23.50;;
26435;SDS011;15351;52.408;16.826;2024-02-28T07:47:20;36.20;;;22.10;;
26435;SDS011;15351;52.408;16.826;2024-02-28T07:49:46;33.30;;;21.00;;
26435;SDS011;15351;52.408;16.826;2024-02-28T07:52:13;33.40;;;21.00;;
26435;SDS011;15351;52.408;16.826;2024-02-28T07:54:46;32.50;;;21.50;;
26435;SDS011;15351;52.408;16.826;2024-02-28T07:57:14;29.90;;;21.10;;
26435;SDS011;15351;52.408;16.826;2024-02-28T07:59:42;32.70;;;20.80;;
26435;SDS011;15351;52.408;16.826;2024-02-28T08:02:09;30.00;;;20.40;;
26435;SDS011;15351;52.408;16.826;2024-02-28T08:04:38;31.80;;;20.40;;
26435;SDS011;15351;52.408;16.826;2024-02-28T08:07:06;28.80;;;19.90;;
26435;SDS011;15351;52.408;16.826;2024-02-28T08:09:33;28.30;;;20.10;;
26435;SDS011;15351;52.408;16.826;2024-02-28T08:14:46;29.20;;;20.40;;
26435;SDS011;15351;52.408;16.826;2024-02-28T08:17:13;27.80;;;20.00;;
26435;SDS011;15351;52.408;16.826;2024-02-28T08:19:41;29.30;;;19.70;;
26435;SDS011;15351;52.408;16.826;2024-02-28T08:22:08;28.50;;;19.90;;
26435;SDS011;15351;52.408;16.826;2024-02-28T08:24:37;31.30;;;19.90;;
26435;SDS011;15351;52.408;16.826;2024-02-28T08:27:04;30.00;;;19.80;;
26435;SDS011;15351;52.408;16.826;2024-02-28T08:29:31;29.80;;;19.90;;
26435;SDS011;15351;52.408;16.826;2024-02-28T08:31:59;29.00;;;19.60;;
26435;SDS011;15351;52.408;16.826;2024-02-28T08:34:27;27.40;;;19.40;;
26435;SDS011;15351;52.408;16.826;2024-02-28T08:36:57;27.40;;;19.20;;
26435;SDS011;15351;52.408;16.826;2024-02-28T08:39:27;25.70;;;18.90;;
26435;SDS011;15351;52.408;16.826;2024-02-28T08:41:53;24.90;;;18.00;;
26435;SDS011;15351;52.408;16.826;2024-02-28T08:44:20;24.50;;;18.00;;
26435;SDS011;15351;52.408;16.826;2024-02-28T08:46:53;27.70;;;19.20;;
26435;SDS011;15351;52.408;16.826;2024-02-28T08:49:20;25.50;;;18.10;;
26435;SDS011;15351;52.408;16.826;2024-02-28T08:51:47;24.70;;;17.80;;
26435;SDS011;15351;52.408;16.826;2024-02-28T08:54:14;25.30;;;17.40;;
26435;SDS011;15351;52.408;16.826;2024-02-28T08:56:41;26.40;;;18.90;;
26435;SDS011;15351;52.408;16.826;2024-02-28T08:59:08;28.80;;;19.60;;
26435;SDS011;15351;52.408;16.826;2024-02-28T09:01:35;26.40;;;19.40;;
26435;SDS011;15351;52.408;16.826;2024-02-28T09:04:03;27.70;;;18.80;;
26435;SDS011;15351;52.408;16.826;2024-02-28T09:06:30;25.20;;;17.60;;
26435;SDS011;15351;52.408;16.826;2024-02-28T09:08:57;23.80;;;16.90;;
26435;SDS011;15351;52.408;16.826;2024-02-28T09:11:25;24.70;;;17.40;;
26435;SDS011;15351;52.408;16.826;2024-02-28T09:13:52;22.40;;;16.90;;
26435;SDS011;15351;52.408;16.826;2024-02-28T09:16:19;21.90;;;16.20;;
26435;SDS011;15351;52.408;16.826;2024-02-28T09:18:46;21.20;;;16.00;;
26435;SDS011;15351;52.408;16.826;2024-02-28T09:21:13;22.00;;;15.70;;
26435;SDS011;15351;52.408;16.826;2024-02-28T09:23:42;20.90;;;15.30;;
26435;SDS011;15351;52.408;16.826;2024-02-28T09:26:11;20.60;;;15.40;;
26435;SDS011;15351;52.408;16.826;2024-02-28T09:28:38;20.40;;;15.00;;
26435;SDS011;15351;52.408;16.826;2024-02-28T09:31:05;21.40;;;14.20;;
26435;SDS011;15351;52.408;16.826;2024-02-28T09:33:31;20.50;;;14.50;;
26435;SDS011;15351;52.408;16.826;2024-02-28T09:35:58;21.50;;;14.80;;
26435;SDS011;15351;52.408;16.826;2024-02-28T09:38:25;19.90;;;14.10;;
26435;SDS011;15351;52.408;16.826;2024-02-28T09:40:55;19.20;;;13.80;;
26435;SDS011;15351;52.408;16.826;2024-02-28T09:43:30;18.50;;;13.20;;
26435;SDS011;15351;52.408;16.826;2024-02-28T11:24:16;23.90;;;16.70;;
26435;SDS011;15351;52.408;16.826;2024-02-28T11:26:48;25.30;;;17.20;;
26435;SDS011;15351;52.408;16.826;2024-02-28T11:29:18;27.80;;;18.60;;
26435;SDS011;15351;52.408;16.826;2024-02-28T11:31:50;25.10;;;17.50;;
26435;SDS011;15351;52.408;16.826;2024-02-28T11:34:18;23.80;;;17.30;;
26435;SDS011;15351;52.408;16.826;2024-02-28T11:36:48;22.60;;;16.40;;
26435;SDS011;15351;52.408;16.826;2024-02-28T11:39:16;23.20;;;16.70;;
26435;SDS011;15351;52.408;16.826;2024-02-28T11:41:46;22.90;;;16.70;;
26435;SDS011;15351;52.408;16.826;2024-02-28T11:44:13;22.20;;;16.10;;
26435;SDS011;15351;52.408;16.826;2024-02-28T11:46:53;27.30;;;17.90;;
26435;SDS011;15351;52.408;16.826;2024-02-28T11:49:39;26.30;;;18.90;;
26435;SDS011;15351;52.408;16.826;2024-02-28T11:52:06;28.50;;;20.10;;
26435;SDS011;15351;52.408;16.826;2024-02-28T11:54:45;26.00;;;18.80;;
26435;SDS011;15351;52.408;16.826;2024-02-28T11:57:12;25.90;;;19.30;;
26435;SDS011;15351;52.408;16.826;2024-02-28T11:59:40;24.70;;;18.60;;
26435;SDS011;15351;52.408;16.826;2024-02-28T12:02:13;20.90;;;14.90;;
26435;SDS011;15351;52.408;16.826;2024-02-28T12:04:44;19.00;;;14.20;;
26435;SDS011;15351;52.408;16.826;2024-02-28T12:07:11;17.30;;;13.10;;
26435;SDS011;15351;52.408;16.826;2024-02-28T12:09:39;17.60;;;13.20;;
26435;SDS011;15351;52.408;16.826;2024-02-28T12:12:06;20.50;;;15.30;;
26435;SDS011;15351;52.408;16.826;2024-02-28T12:14:37;22.20;;;16.60;;
26435;SDS011;15351;52.408;16.826;2024-02-28T12:17:09;25.40;;;19.60;;
26435;SDS011;15351;52.408;16.826;2024-02-28T12:19:36;25.40;;;19.00;;
26435;SDS011;15351;52.408;16.826;2024-02-28T12:22:05;23.80;;;18.50;;
26435;SDS011;15351;52.408;16.826;2024-02-28T12:24:34;24.00;;;18.70;;
26435;SDS011;15351;52.408;16.826;2024-02-28T12:27:01;24.30;;;18.00;;
26435;SDS011;15351;52.408;16.826;2024-02-28T12:29:28;24.20;;;17.30;;
26435;SDS011;15351;52.408;16.826;2024-02-28T12:31:55;24.50;;;17.00;;
26435;SDS011;15351;52.408;16.826;2024-02-28T12:34:22;23.20;;;16.70;;
26435;SDS011;15351;52.408;16.826;2024-02-28T12:36:48;22.50;;;15.30;;
26435;SDS011;15351;52.408;16.826;2024-02-28T12:39:15;20.60;;;14.20;;
26435;SDS011;15351;52.408;16.826;2024-02-28T12:41:42;19.10;;;14.00;;
26435;SDS011;15351;52.408;16.826;2024-02-28T12:44:09;20.10;;;13.80;;
26435;SDS011;15351;52.408;16.826;2024-02-28T12:46:37;18.10;;;13.20;;
26435;SDS011;15351;52.408;16.826;2024-02-28T12:49:03;16.50;;;12.10;;
26435;SDS011;15351;52.408;16.826;2024-02-28T12:51:44;17.40;;;12.20;;
26435;SDS011;15351;52.408;16.826;2024-02-28T12:54:12;18.10;;;12.60;;
26435;SDS011;15351;52.408;16.826;2024-02-28T12:56:42;18.90;;;13.80;;
26435;SDS011;15351;52.408;16.826;2024-02-28T12:59:12;21.20;;;15.00;;
26435;SDS011;15351;52.408;16.826;2024-02-28T13:01:39;23.00;;;16.10;;
26435;SDS011;15351;52.408;16.826;2024-02-28T13:04:06;23.50;;;16.00;;
26435;SDS011;15351;52.408;16.826;2024-02-28T13:06:33;21.70;;;15.40;;
26435;SDS011;15351;52.408;16.826;2024-02-28T13:09:01;21.20;;;15.20;;
26435;SDS011;15351;52.408;16.826;2024-02-28T13:11:27;23.30;;;15.40;;
26435;SDS011;15351;52.408;16.826;2024-02-28T13:13:55;22.60;;;15.40;;
26435;SDS011;15351;52.408;16.826;2024-02-28T13:16:24;22.50;;;15.70;;
26435;SDS011;15351;52.408;16.826;2024-02-28T13:18:51;22.40;;;15.90;;
26435;SDS011;15351;52.408;16.826;2024-02-28T13:21:18;22.10;;;15.70;;
26435;SDS011;15351;52.408;16.826;2024-02-28T13:23:45;22.10;;;16.30;;
26435;SDS011;15351;52.408;16.826;2024-02-28T13:26:11;21.90;;;16.50;;
26435;SDS011;15351;52.408;16.826;2024-02-28T13:28:44;23.90;;;17.40;;
26435;SDS011;15351;52.408;16.826;2024-02-28T13:31:14;24.00;;;18.20;;
26435;SDS011;15351;52.408;16.826;2024-02-28T13:33:41;25.90;;;18.80;;
26435;SDS011;15351;52.408;16.826;2024-02-28T13:36:08;25.00;;;18.90;;
26435;SDS011;15351;52.408;16.826;2024-02-28T13:38:36;28.70;;;21.80;;
26435;SDS011;15351;52.408;16.826;2024-02-28T13:41:03;28.60;;;21.00;;
26435;SDS011;15351;52.408;16.826;2024-02-28T13:43:30;29.40;;;21.90;;
26435;SDS011;15351;52.408;16.826;2024-02-28T13:45:58;31.70;;;23.50;;
26435;SDS011;15351;52.408;16.826;2024-02-28T13:48:27;31.00;;;22.80;;
26435;SDS011;15351;52.408;16.826;2024-02-28T13:50:59;32.10;;;23.20;;
26435;SDS011;15351;52.408;16.826;2024-02-28T13:53:25;36.40;;;25.20;;
26435;SDS011;15351;52.408;16.826;2024-02-28T13:55:52;37.00;;;25.40;;
26435;SDS011;15351;52.408;16.826;2024-02-28T13:58:30;39.60;;;26.10;;
26435;SDS011;15351;52.408;16.826;2024-02-28T14:00:57;42.80;;;27.60;;
26435;SDS011;15351;52.408;16.826;2024-02-28T14:03:46;48.40;;;30.90;;
26435;SDS011;15351;52.408;16.826;2024-02-28T14:06:13;45.30;;;28.60;;
26435;SDS011;15351;52.408;16.826;2024-02-28T14:08:49;47.30;;;29.60;;
26435;SDS011;15351;52.408;16.826;2024-02-28T14:11:18;52.30;;;32.80;;
26435;SDS011;15351;52.408;16.826;2024-02-28T14:13:45;58.90;;;35.50;;
26435;SDS011;15351;52.408;16.826;2024-02-28T14:16:12;59.60;;;35.60;;
26435;SDS011;15351;52.408;16.826;2024-02-28T14:18:39;54.50;;;32.80;;
26435;SDS011;15351;52.408;16.826;2024-02-28T14:21:06;59.60;;;33.20;;
26435;SDS011;15351;52.408;16.826;2024-02-28T14:23:36;60.80;;;33.90;;
26435;SDS011;15351;52.408;16.826;2024-02-28T14:26:03;62.80;;;34.30;;
26435;SDS011;15351;52.408;16.826;2024-02-28T14:28:30;69.50;;;36.10;;
26435;SDS011;15351;52.408;16.826;2024-02-28T14:30:57;70.70;;;36.70;;
26435;SDS011;15351;52.408;16.826;2024-02-28T14:33:24;75.00;;;37.40;;
26435;SDS011;15351;52.408;16.826;2024-02-28T14:35:54;72.50;;;36.30;;
26435;SDS011;15351;52.408;16.826;2024-02-28T14:38:21;78.50;;;37.60;;
26435;SDS011;15351;52.408;16.826;2024-02-28T14:40:47;76.40;;;36.10;;
26435;SDS011;15351;52.408;16.826;2024-02-28T14:43:15;83.30;;;37.70;;
26435;SDS011;15351;52.408;16.826;2024-02-28T14:45:42;92.80;;;42.50;;
26435;SDS011;15351;52.408;16.826;2024-02-28T14:48:09;85.70;;;37.70;;
26435;SDS011;15351;52.408;16.826;2024-02-28T14:50:35;79.90;;;35.50;;
26435;SDS011;15351;52.408;16.826;2024-02-28T14:53:02;79.70;;;37.20;;
26435;SDS011;15351;52.408;16.826;2024-02-28T14:55:29;80.00;;;36.00;;
26435;SDS011;15351;52.408;16.826;2024-02-28T14:57:56;79.00;;;35.20;;
26435;SDS011;15351;52.408;16.826;2024-02-28T15:00:24;77.10;;;35.90;;
26435;SDS011;15351;52.408;16.826;2024-02-28T15:02:52;79.50;;;35.50;;
26435;SDS011;15351;52.408;16.826;2024-02-28T15:05:20;74.70;;;35.30;;
26435;SDS011;15351;52.408;16.826;2024-02-28T15:07:47;75.30;;;35.10;;
26435;SDS011;15351;52.408;16.826;2024-02-28T15:10:15;74.40;;;35.00;;
26435;SDS011;15351;52.408;16.826;2024-02-28T15:12:42;75.50;;;35.10;;
26435;SDS011;15351;52.408;16.826;2024-02-28T15:15:10;73.40;;;34.90;;
26435;SDS011;15351;52.408;16.826;2024-02-28T15:17:41;65.50;;;33.20;;
26435;SDS011;15351;52.408;16.826;2024-02-28T15:20:08;67.70;;;33.50;;
26435;SDS011;15351;52.408;16.826;2024-02-28T15:22:35;64.20;;;32.20;;
26435;SDS011;15351;52.408;16.826;2024-02-28T15:25:02;58.50;;;30.40;;
26435;SDS011;15351;52.408;16.826;2024-02-28T15:27:33;54.60;;;29.90;;
26435;SDS011;15351;52.408;16.826;2024-02-28T15:30:00;57.70;;;29.90;;
26435;SDS011;15351;52.408;16.826;2024-02-28T15:32:27;56.70;;;29.50;;
26435;SDS011;15351;52.408;16.826;2024-02-28T15:34:54;51.80;;;28.10;;
26435;SDS011;15351;52.408;16.826;2024-02-28T15:37:21;49.60;;;27.40;;
26435;SDS011;15351;52.408;16.826;2024-02-28T15:39:48;51.10;;;29.50;;
26435;SDS011;15351;52.408;16.826;2024-02-28T15:42:16;52.00;;;29.00;;
26435;SDS011;15351;52.408;16.826;2024-02-28T15:44:43;52.60;;;29.10;;
26435;SDS011;15351;52.408;16.826;2024-02-28T15:47:09;52.30;;;29.60;;
26435;SDS011;15351;52.408;16.826;2024-02-28T15:49:36;52.80;;;29.10;;
26435;SDS011;15351;52.408;16.826;2024-02-28T15:52:03;55.00;;;30.00;;
26435;SDS011;15351;52.408;16.826;2024-02-28T15:54:35;61.70;;;32.30;;
26435;SDS011;15351;52.408;16.826;2024-02-28T15:57:07;64.10;;;33.90;;
26435;SDS011;15351;52.408;16.826;2024-02-28T15:59:38;67.10;;;33.60;;
26435;SDS011;15351;52.408;16.826;2024-02-28T16:02:07;63.00;;;33.10;;
26435;SDS011;15351;52.408;16.826;2024-02-28T16:04:36;62.00;;;32.00;;
26435;SDS011;15351;52.408;16.826;2024-02-28T16:07:03;63.50;;;32.60;;
26435;SDS011;15351;52.408;16.826;2024-02-28T16:09:30;63.50;;;35.00;;
26435;SDS011;15351;52.408;16.826;2024-02-28T16:12:09;64.60;;;34.20;;
26435;SDS011;15351;52.408;16.826;2024-02-28T16:14:37;67.00;;;34.20;;
26435;SDS011;15351;52.408;16.826;2024-02-28T16:17:04;70.00;;;35.60;;
26435;SDS011;15351;52.408;16.826;2024-02-28T16:19:31;68.20;;;34.70;;
26435;SDS011;15351;52.408;16.826;2024-02-28T16:22:02;64.60;;;34.30;;
26435;SDS011;15351;52.408;16.826;2024-02-28T16:24:29;66.50;;;35.00;;
26435;SDS011;15351;52.408;16.826;2024-02-28T16:26:59;68.10;;;35.00;;
26435;SDS011;15351;52.408;16.826;2024-02-28T16:29:26;72.10;;;36.90;;
26435;SDS011;15351;52.408;16.826;2024-02-28T16:31:54;69.80;;;36.30;;
26435;SDS011;15351;52.408;16.826;2024-02-28T16:37:50;68.40;;;35.50;;
26435;SDS011;15351;52.408;16.826;2024-02-28T16:43:02;77.10;;;37.60;;
26435;SDS011;15351;52.408;16.826;2024-02-28T16:45:29;75.20;;;38.50;;
26435;SDS011;15351;52.408;16.826;2024-02-28T16:47:56;75.10;;;38.30;;
26435;SDS011;15351;52.408;16.826;2024-02-28T16:50:23;79.40;;;41.90;;